sensor_id;sensor_type;location;lat;lon;timestamp;P1;durP1;ratioP1;P2;durP2;ratioP2
58898;SDS011;44680;48.342;7.856;2022-08-19T00:00:14;19.30;;;13.02;;
58898;SDS011;44680;48.342;7.856;2022-08-19T00:02:41;20.30;;;12.82;;
58898;SDS011;44680;48.342;7.856;2022-08-19T00:05:07;18.95;;;12.85;;
58898;SDS011;44680;48.342;7.856;2022-08-19T00:07:33;21.50;;;12.43;;
58898;SDS011;44680;48.342;7.856;2022-08-19T00:09:58;19.55;;;12.80;;
58898;SDS011;44680;48.342;7.856;2022-08-19T00:12:24;19.75;;;12.52;;
58898;SDS011;44680;48.342;7.856;2022-08-19T00:14:49;19.17;;;13.35;;
58898;SDS011;44680;48.342;7.856;2022-08-19T00:17:14;19.17;;;13.35;;
58898;SDS011;44680;48.342;7.856;2022-08-19T00:19:40;19.35;;;13.80;;
58898;SDS011;44680;48.342;7.856;2022-08-19T00:22:06;21.05;;;13.75;;
58898;SDS011;44680;48.342;7.856;2022-08-19T00:24:33;23.35;;;14.77;;
58898;SDS011;44680;48.342;7.856;2022-08-19T00:26:59;21.42;;;14.73;;
58898;SDS011;44680;48.342;7.856;2022-08-19T00:29:26;24.13;;;14.60;;
58898;SDS011;44680;48.342;7.856;2022-08-19T00:31:52;21.17;;;14.15;;
58898;SDS011;44680;48.342;7.856;2022-08-19T00:34:22;22.30;;;13.63;;
58898;SDS011;44680;48.342;7.856;2022-08-19T00:36:48;25.48;;;14.30;;
58898;SDS011;44680;48.342;7.856;2022-08-19T00:39:14;24.33;;;14.18;;
58898;SDS011;44680;48.342;7.856;2022-08-19T00:41:40;23.05;;;15.15;;
58898;SDS011;44680;48.342;7.856;2022-08-19T00:44:08;23.88;;;15.63;;
58898;SDS011;44680;48.342;7.856;2022-08-19T00:46:39;21.55;;;14.40;;
58898;SDS011;44680;48.342;7.856;2022-08-19T00:49:23;23.77;;;15.18;;
58898;SDS011;44680;48.342;7.856;2022-08-19T00:51:53;22.75;;;15.13;;
58898;SDS011;44680;48.342;7.856;2022-08-19T00:54:21;22.20;;;14.88;;
58898;SDS011;44680;48.342;7.856;2022-08-19T00:56:47;23.75;;;15.93;;
58898;SDS011;44680;48.342;7.856;2022-08-19T00:59:14;24.55;;;15.60;;
58898;SDS011;44680;48.342;7.856;2022-08-19T01:01:41;30.08;;;18.35;;
58898;SDS011;44680;48.342;7.856;2022-08-19T01:04:08;26.08;;;17.48;;
58898;SDS011;44680;48.342;7.856;2022-08-19T01:06:33;27.10;;;17.75;;
58898;SDS011;44680;48.342;7.856;2022-08-19T01:09:01;25.73;;;17.40;;
58898;SDS011;44680;48.342;7.856;2022-08-19T01:11:27;25.98;;;17.15;;
58898;SDS011;44680;48.342;7.856;2022-08-19T01:13:53;27.48;;;19.33;;
58898;SDS011;44680;48.342;7.856;2022-08-19T01:16:19;26.75;;;18.05;;
58898;SDS011;44680;48.342;7.856;2022-08-19T01:18:47;29.83;;;18.67;;
58898;SDS011;44680;48.342;7.856;2022-08-19T01:21:18;26.45;;;16.92;;
58898;SDS011;44680;48.342;7.856;2022-08-19T01:23:51;24.48;;;16.98;;
58898;SDS011;44680;48.342;7.856;2022-08-19T01:26:17;26.25;;;16.98;;
58898;SDS011;44680;48.342;7.856;2022-08-19T01:28:45;25.38;;;16.95;;
58898;SDS011;44680;48.342;7.856;2022-08-19T01:31:17;26.58;;;17.05;;
58898;SDS011;44680;48.342;7.856;2022-08-19T01:33:43;24.05;;;15.52;;
58898;SDS011;44680;48.342;7.856;2022-08-19T01:36:11;24.08;;;16.10;;
58898;SDS011;44680;48.342;7.856;2022-08-19T01:38:40;22.45;;;14.05;;
58898;SDS011;44680;48.342;7.856;2022-08-19T01:41:08;26.33;;;14.82;;
58898;SDS011;44680;48.342;7.856;2022-08-19T01:43:35;21.23;;;14.38;;
58898;SDS011;44680;48.342;7.856;2022-08-19T01:46:01;24.35;;;14.32;;
58898;SDS011;44680;48.342;7.856;2022-08-19T01:48:32;22.55;;;14.05;;
58898;SDS011;44680;48.342;7.856;2022-08-19T01:50:58;19.27;;;13.05;;
58898;SDS011;44680;48.342;7.856;2022-08-19T01:53:23;19.85;;;13.60;;
58898;SDS011;44680;48.342;7.856;2022-08-19T01:55:49;21.30;;;13.90;;
58898;SDS011;44680;48.342;7.856;2022-08-19T01:58:17;19.95;;;12.63;;
58898;SDS011;44680;48.342;7.856;2022-08-19T02:00:45;18.98;;;12.48;;
58898;SDS011;44680;48.342;7.856;2022-08-19T02:03:11;18.92;;;12.20;;
58898;SDS011;44680;48.342;7.856;2022-08-19T02:05:36;19.20;;;12.63;;
58898;SDS011;44680;48.342;7.856;2022-08-19T02:08:02;20.73;;;12.63;;
58898;SDS011;44680;48.342;7.856;2022-08-19T02:10:27;19.27;;;12.85;;
58898;SDS011;44680;48.342;7.856;2022-08-19T02:12:53;19.88;;;12.57;;
58898;SDS011;44680;48.342;7.856;2022-08-19T02:15:18;18.73;;;12.50;;
58898;SDS011;44680;48.342;7.856;2022-08-19T02:17:44;18.25;;;12.40;;
58898;SDS011;44680;48.342;7.856;2022-08-19T02:20:11;20.35;;;13.10;;
58898;SDS011;44680;48.342;7.856;2022-08-19T02:22:37;16.77;;;11.68;;
58898;SDS011;44680;48.342;7.856;2022-08-19T02:25:06;16.85;;;11.27;;
58898;SDS011;44680;48.342;7.856;2022-08-19T02:27:32;18.33;;;12.60;;
58898;SDS011;44680;48.342;7.856;2022-08-19T02:29:58;18.88;;;12.50;;
58898;SDS011;44680;48.342;7.856;2022-08-19T02:32:23;22.80;;;12.48;;
58898;SDS011;44680;48.342;7.856;2022-08-19T02:34:49;17.52;;;12.10;;
58898;SDS011;44680;48.342;7.856;2022-08-19T02:37:14;17.88;;;11.93;;
58898;SDS011;44680;48.342;7.856;2022-08-19T02:39:58;18.03;;;11.90;;
58898;SDS011;44680;48.342;7.856;2022-08-19T02:42:24;17.52;;;12.52;;
58898;SDS011;44680;48.342;7.856;2022-08-19T02:44:49;17.60;;;11.45;;
58898;SDS011;44680;48.342;7.856;2022-08-19T02:47:16;16.58;;;11.60;;
58898;SDS011;44680;48.342;7.856;2022-08-19T02:49:43;17.55;;;12.25;;
58898;SDS011;44680;48.342;7.856;2022-08-19T02:52:09;20.35;;;11.90;;
58898;SDS011;44680;48.342;7.856;2022-08-19T02:54:36;16.40;;;11.52;;
58898;SDS011;44680;48.342;7.856;2022-08-19T02:57:02;17.98;;;11.68;;
58898;SDS011;44680;48.342;7.856;2022-08-19T02:59:29;17.58;;;12.00;;
58898;SDS011;44680;48.342;7.856;2022-08-19T03:01:55;19.17;;;12.35;;
58898;SDS011;44680;48.342;7.856;2022-08-19T03:04:20;16.27;;;11.65;;
58898;SDS011;44680;48.342;7.856;2022-08-19T03:06:46;18.00;;;12.68;;
58898;SDS011;44680;48.342;7.856;2022-08-19T03:09:12;19.55;;;12.00;;
58898;SDS011;44680;48.342;7.856;2022-08-19T03:11:38;19.15;;;12.13;;
58898;SDS011;44680;48.342;7.856;2022-08-19T03:14:04;15.75;;;11.38;;
58898;SDS011;44680;48.342;7.856;2022-08-19T03:16:31;17.85;;;11.98;;
58898;SDS011;44680;48.342;7.856;2022-08-19T03:18:58;15.07;;;10.65;;
58898;SDS011;44680;48.342;7.856;2022-08-19T03:21:25;16.65;;;11.73;;
58898;SDS011;44680;48.342;7.856;2022-08-19T03:23:59;17.50;;;12.40;;
58898;SDS011;44680;48.342;7.856;2022-08-19T03:26:26;19.55;;;12.10;;
58898;SDS011;44680;48.342;7.856;2022-08-19T03:28:51;21.00;;;12.25;;
58898;SDS011;44680;48.342;7.856;2022-08-19T03:31:20;19.30;;;13.13;;
58898;SDS011;44680;48.342;7.856;2022-08-19T03:33:47;20.35;;;13.75;;
58898;SDS011;44680;48.342;7.856;2022-08-19T03:36:18;23.60;;;14.95;;
58898;SDS011;44680;48.342;7.856;2022-08-19T03:38:49;20.38;;;13.30;;
58898;SDS011;44680;48.342;7.856;2022-08-19T03:41:17;18.35;;;12.27;;
58898;SDS011;44680;48.342;7.856;2022-08-19T03:43:44;17.33;;;12.27;;
58898;SDS011;44680;48.342;7.856;2022-08-19T03:46:18;19.90;;;11.98;;
58898;SDS011;44680;48.342;7.856;2022-08-19T03:48:48;17.88;;;12.27;;
58898;SDS011;44680;48.342;7.856;2022-08-19T03:51:29;16.52;;;11.88;;
58898;SDS011;44680;48.342;7.856;2022-08-19T03:53:56;18.30;;;11.93;;
58898;SDS011;44680;48.342;7.856;2022-08-19T03:56:23;17.52;;;11.98;;
58898;SDS011;44680;48.342;7.856;2022-08-19T03:58:50;20.02;;;12.02;;
58898;SDS011;44680;48.342;7.856;2022-08-19T04:01:17;16.50;;;11.30;;
58898;SDS011;44680;48.342;7.856;2022-08-19T04:03:45;17.58;;;11.95;;
58898;SDS011;44680;48.342;7.856;2022-08-19T04:06:15;17.70;;;11.82;;
58898;SDS011;44680;48.342;7.856;2022-08-19T04:08:42;15.60;;;11.10;;
58898;SDS011;44680;48.342;7.856;2022-08-19T04:11:10;16.90;;;11.82;;
58898;SDS011;44680;48.342;7.856;2022-08-19T04:13:37;17.17;;;10.95;;
58898;SDS011;44680;48.342;7.856;2022-08-19T04:16:03;16.92;;;11.90;;
58898;SDS011;44680;48.342;7.856;2022-08-19T04:18:29;16.25;;;11.30;;
58898;SDS011;44680;48.342;7.856;2022-08-19T04:20:57;17.65;;;11.82;;
58898;SDS011;44680;48.342;7.856;2022-08-19T04:23:23;20.85;;;12.13;;
58898;SDS011;44680;48.342;7.856;2022-08-19T04:25:48;17.77;;;12.38;;
58898;SDS011;44680;48.342;7.856;2022-08-19T04:28:14;18.02;;;11.40;;
58898;SDS011;44680;48.342;7.856;2022-08-19T04:30:43;18.13;;;12.27;;
58898;SDS011;44680;48.342;7.856;2022-08-19T04:33:12;18.05;;;12.38;;
58898;SDS011;44680;48.342;7.856;2022-08-19T04:35:39;17.30;;;11.85;;
58898;SDS011;44680;48.342;7.856;2022-08-19T04:38:06;20.63;;;12.40;;
58898;SDS011;44680;48.342;7.856;2022-08-19T04:40:32;18.92;;;13.50;;
58898;SDS011;44680;48.342;7.856;2022-08-19T04:43:16;20.10;;;13.05;;
58898;SDS011;44680;48.342;7.856;2022-08-19T04:45:42;21.20;;;12.93;;
58898;SDS011;44680;48.342;7.856;2022-08-19T04:48:08;18.38;;;12.52;;
58898;SDS011;44680;48.342;7.856;2022-08-19T04:50:34;18.92;;;12.50;;
58898;SDS011;44680;48.342;7.856;2022-08-19T04:53:00;20.02;;;13.02;;
58898;SDS011;44680;48.342;7.856;2022-08-19T04:55:25;19.38;;;13.38;;
58898;SDS011;44680;48.342;7.856;2022-08-19T04:57:50;20.92;;;13.18;;
58898;SDS011;44680;48.342;7.856;2022-08-19T05:00:16;20.92;;;13.48;;
58898;SDS011;44680;48.342;7.856;2022-08-19T05:02:41;19.23;;;12.90;;
58898;SDS011;44680;48.342;7.856;2022-08-19T05:05:07;21.35;;;14.23;;
58898;SDS011;44680;48.342;7.856;2022-08-19T05:07:32;19.98;;;13.63;;
58898;SDS011;44680;48.342;7.856;2022-08-19T05:09:58;19.95;;;13.27;;
58898;SDS011;44680;48.342;7.856;2022-08-19T05:12:23;20.23;;;12.82;;
58898;SDS011;44680;48.342;7.856;2022-08-19T05:14:49;19.30;;;13.55;;
58898;SDS011;44680;48.342;7.856;2022-08-19T05:17:14;20.65;;;13.90;;
58898;SDS011;44680;48.342;7.856;2022-08-19T05:19:40;22.55;;;14.88;;
58898;SDS011;44680;48.342;7.856;2022-08-19T05:22:24;22.63;;;15.45;;
58898;SDS011;44680;48.342;7.856;2022-08-19T05:25:03;21.35;;;14.05;;
58898;SDS011;44680;48.342;7.856;2022-08-19T05:27:31;23.67;;;15.65;;
58898;SDS011;44680;48.342;7.856;2022-08-19T05:29:57;22.77;;;15.43;;
58898;SDS011;44680;48.342;7.856;2022-08-19T05:32:22;24.83;;;16.77;;
58898;SDS011;44680;48.342;7.856;2022-08-19T05:34:48;23.55;;;15.48;;
58898;SDS011;44680;48.342;7.856;2022-08-19T05:37:14;23.42;;;14.55;;
58898;SDS011;44680;48.342;7.856;2022-08-19T05:39:39;24.50;;;15.57;;
58898;SDS011;44680;48.342;7.856;2022-08-19T05:42:06;24.05;;;15.43;;
58898;SDS011;44680;48.342;7.856;2022-08-19T05:44:35;23.67;;;13.95;;
58898;SDS011;44680;48.342;7.856;2022-08-19T05:47:03;22.15;;;14.52;;
58898;SDS011;44680;48.342;7.856;2022-08-19T05:49:30;22.58;;;14.73;;
58898;SDS011;44680;48.342;7.856;2022-08-19T05:51:56;21.58;;;14.73;;
58898;SDS011;44680;48.342;7.856;2022-08-19T05:54:22;24.52;;;14.45;;
58898;SDS011;44680;48.342;7.856;2022-08-19T05:56:48;20.75;;;14.32;;
58898;SDS011;44680;48.342;7.856;2022-08-19T05:59:15;24.08;;;15.15;;
58898;SDS011;44680;48.342;7.856;2022-08-19T06:01:42;23.83;;;15.52;;
58898;SDS011;44680;48.342;7.856;2022-08-19T06:04:08;23.50;;;15.68;;
58898;SDS011;44680;48.342;7.856;2022-08-19T06:06:34;23.67;;;15.85;;
58898;SDS011;44680;48.342;7.856;2022-08-19T06:09:00;22.63;;;15.50;;
58898;SDS011;44680;48.342;7.856;2022-08-19T06:11:34;26.10;;;17.05;;
58898;SDS011;44680;48.342;7.856;2022-08-19T06:14:03;24.65;;;15.18;;
58898;SDS011;44680;48.342;7.856;2022-08-19T06:16:36;25.15;;;16.88;;
58898;SDS011;44680;48.342;7.856;2022-08-19T06:19:04;25.48;;;16.13;;
58898;SDS011;44680;48.342;7.856;2022-08-19T06:21:32;23.80;;;15.43;;
58898;SDS011;44680;48.342;7.856;2022-08-19T06:23:58;26.48;;;17.15;;
58898;SDS011;44680;48.342;7.856;2022-08-19T06:26:24;24.27;;;15.90;;
58898;SDS011;44680;48.342;7.856;2022-08-19T06:28:49;26.13;;;15.65;;
58898;SDS011;44680;48.342;7.856;2022-08-19T06:31:16;26.15;;;15.88;;
58898;SDS011;44680;48.342;7.856;2022-08-19T06:33:43;23.00;;;15.27;;
58898;SDS011;44680;48.342;7.856;2022-08-19T06:36:23;23.98;;;15.13;;
58898;SDS011;44680;48.342;7.856;2022-08-19T06:38:56;24.95;;;15.82;;
58898;SDS011;44680;48.342;7.856;2022-08-19T06:41:22;25.10;;;16.48;;
58898;SDS011;44680;48.342;7.856;2022-08-19T06:43:48;24.88;;;15.77;;
58898;SDS011;44680;48.342;7.856;2022-08-19T06:46:14;24.00;;;15.73;;
58898;SDS011;44680;48.342;7.856;2022-08-19T06:48:40;25.60;;;16.13;;
58898;SDS011;44680;48.342;7.856;2022-08-19T06:51:06;25.30;;;16.30;;
58898;SDS011;44680;48.342;7.856;2022-08-19T06:53:32;22.58;;;14.85;;
58898;SDS011;44680;48.342;7.856;2022-08-19T06:55:57;24.85;;;15.98;;
58898;SDS011;44680;48.342;7.856;2022-08-19T06:58:25;24.80;;;16.10;;
58898;SDS011;44680;48.342;7.856;2022-08-19T07:00:50;26.50;;;16.30;;
58898;SDS011;44680;48.342;7.856;2022-08-19T07:03:16;27.15;;;17.42;;
58898;SDS011;44680;48.342;7.856;2022-08-19T07:05:41;25.88;;;16.75;;
58898;SDS011;44680;48.342;7.856;2022-08-19T07:08:07;24.20;;;15.82;;
58898;SDS011;44680;48.342;7.856;2022-08-19T07:10:32;26.35;;;16.77;;
58898;SDS011;44680;48.342;7.856;2022-08-19T07:12:59;26.15;;;17.10;;
58898;SDS011;44680;48.342;7.856;2022-08-19T07:15:25;25.83;;;17.65;;
58898;SDS011;44680;48.342;7.856;2022-08-19T07:17:50;26.83;;;17.85;;
58898;SDS011;44680;48.342;7.856;2022-08-19T07:20:16;29.13;;;17.63;;
58898;SDS011;44680;48.342;7.856;2022-08-19T07:22:41;26.67;;;18.10;;
58898;SDS011;44680;48.342;7.856;2022-08-19T07:25:07;27.70;;;17.83;;
58898;SDS011;44680;48.342;7.856;2022-08-19T07:27:34;26.98;;;17.70;;
58898;SDS011;44680;48.342;7.856;2022-08-19T07:29:59;26.23;;;18.27;;
58898;SDS011;44680;48.342;7.856;2022-08-19T07:32:25;28.20;;;18.73;;
58898;SDS011;44680;48.342;7.856;2022-08-19T07:34:51;27.88;;;17.95;;
58898;SDS011;44680;48.342;7.856;2022-08-19T07:37:17;24.88;;;16.88;;
58898;SDS011;44680;48.342;7.856;2022-08-19T07:39:42;24.67;;;16.77;;
58898;SDS011;44680;48.342;7.856;2022-08-19T07:42:09;26.50;;;17.70;;
58898;SDS011;44680;48.342;7.856;2022-08-19T07:44:35;26.98;;;17.90;;
58898;SDS011;44680;48.342;7.856;2022-08-19T07:47:01;28.98;;;19.88;;
58898;SDS011;44680;48.342;7.856;2022-08-19T07:49:26;27.98;;;18.75;;
58898;SDS011;44680;48.342;7.856;2022-08-19T07:51:54;31.63;;;18.83;;
58898;SDS011;44680;48.342;7.856;2022-08-19T07:54:22;31.80;;;19.60;;
58898;SDS011;44680;48.342;7.856;2022-08-19T07:56:48;27.80;;;18.23;;
58898;SDS011;44680;48.342;7.856;2022-08-19T07:59:15;30.08;;;20.08;;
58898;SDS011;44680;48.342;7.856;2022-08-19T08:01:42;28.00;;;18.85;;
58898;SDS011;44680;48.342;7.856;2022-08-19T08:04:08;28.00;;;17.95;;
58898;SDS011;44680;48.342;7.856;2022-08-19T08:06:53;25.53;;;16.77;;
58898;SDS011;44680;48.342;7.856;2022-08-19T08:09:38;27.48;;;17.73;;
58898;SDS011;44680;48.342;7.856;2022-08-19T08:12:06;27.58;;;18.98;;
58898;SDS011;44680;48.342;7.856;2022-08-19T08:14:36;27.63;;;18.70;;
58898;SDS011;44680;48.342;7.856;2022-08-19T08:17:05;27.48;;;17.67;;
58898;SDS011;44680;48.342;7.856;2022-08-19T08:19:31;30.38;;;19.13;;
58898;SDS011;44680;48.342;7.856;2022-08-19T08:21:57;27.90;;;18.77;;
58898;SDS011;44680;48.342;7.856;2022-08-19T08:24:25;29.13;;;20.42;;
58898;SDS011;44680;48.342;7.856;2022-08-19T08:26:55;27.63;;;18.20;;
58898;SDS011;44680;48.342;7.856;2022-08-19T08:29:22;30.55;;;20.10;;
58898;SDS011;44680;48.342;7.856;2022-08-19T08:31:47;30.02;;;18.30;;
58898;SDS011;44680;48.342;7.856;2022-08-19T08:34:13;31.88;;;19.65;;
58898;SDS011;44680;48.342;7.856;2022-08-19T08:36:40;30.17;;;20.42;;
58898;SDS011;44680;48.342;7.856;2022-08-19T08:39:12;28.73;;;20.20;;
58898;SDS011;44680;48.342;7.856;2022-08-19T08:44:23;31.83;;;20.83;;
58898;SDS011;44680;48.342;7.856;2022-08-19T08:46:55;29.90;;;19.77;;
58898;SDS011;44680;48.342;7.856;2022-08-19T08:52:19;30.05;;;21.40;;
58898;SDS011;44680;48.342;7.856;2022-08-19T08:54:48;30.17;;;20.55;;
58898;SDS011;44680;48.342;7.856;2022-08-19T08:57:20;31.60;;;20.83;;
58898;SDS011;44680;48.342;7.856;2022-08-19T08:59:49;32.45;;;20.75;;
58898;SDS011;44680;48.342;7.856;2022-08-19T09:02:17;31.27;;;21.20;;
58898;SDS011;44680;48.342;7.856;2022-08-19T09:04:42;29.95;;;21.40;;
58898;SDS011;44680;48.342;7.856;2022-08-19T09:10:07;28.45;;;18.92;;
58898;SDS011;44680;48.342;7.856;2022-08-19T09:15:29;31.92;;;21.10;;
58898;SDS011;44680;48.342;7.856;2022-08-19T09:18:00;33.65;;;21.35;;
58898;SDS011;44680;48.342;7.856;2022-08-19T09:20:27;29.75;;;19.85;;
58898;SDS011;44680;48.342;7.856;2022-08-19T09:22:52;29.20;;;20.45;;
58898;SDS011;44680;48.342;7.856;2022-08-19T09:25:19;29.67;;;20.15;;
58898;SDS011;44680;48.342;7.856;2022-08-19T09:27:47;28.73;;;19.67;;
58898;SDS011;44680;48.342;7.856;2022-08-19T09:30:15;30.17;;;19.92;;
58898;SDS011;44680;48.342;7.856;2022-08-19T09:32:43;31.00;;;19.38;;
58898;SDS011;44680;48.342;7.856;2022-08-19T09:35:10;30.77;;;20.92;;
58898;SDS011;44680;48.342;7.856;2022-08-19T09:37:36;24.70;;;16.85;;
58898;SDS011;44680;48.342;7.856;2022-08-19T09:40:01;28.45;;;20.02;;
58898;SDS011;44680;48.342;7.856;2022-08-19T09:42:27;31.02;;;21.45;;
58898;SDS011;44680;48.342;7.856;2022-08-19T09:44:53;29.00;;;20.48;;
58898;SDS011;44680;48.342;7.856;2022-08-19T09:47:18;28.20;;;19.45;;
58898;SDS011;44680;48.342;7.856;2022-08-19T09:49:43;31.48;;;20.40;;
58898;SDS011;44680;48.342;7.856;2022-08-19T09:52:09;28.88;;;20.05;;
58898;SDS011;44680;48.342;7.856;2022-08-19T09:54:35;29.23;;;20.10;;
58898;SDS011;44680;48.342;7.856;2022-08-19T09:57:01;31.67;;;21.00;;
58898;SDS011;44680;48.342;7.856;2022-08-19T09:59:27;26.92;;;19.45;;
58898;SDS011;44680;48.342;7.856;2022-08-19T10:01:52;29.88;;;19.92;;
58898;SDS011;44680;48.342;7.856;2022-08-19T10:04:18;31.20;;;21.25;;
58898;SDS011;44680;48.342;7.856;2022-08-19T10:06:46;29.77;;;19.90;;
58898;SDS011;44680;48.342;7.856;2022-08-19T10:09:12;29.35;;;20.80;;
58898;SDS011;44680;48.342;7.856;2022-08-19T10:11:39;29.80;;;21.00;;
58898;SDS011;44680;48.342;7.856;2022-08-19T10:14:05;30.83;;;20.70;;
58898;SDS011;44680;48.342;7.856;2022-08-19T10:16:31;27.58;;;20.38;;
58898;SDS011;44680;48.342;7.856;2022-08-19T10:18:57;27.42;;;19.08;;
58898;SDS011;44680;48.342;7.856;2022-08-19T10:21:24;27.88;;;19.10;;
58898;SDS011;44680;48.342;7.856;2022-08-19T10:23:53;26.90;;;17.92;;
58898;SDS011;44680;48.342;7.856;2022-08-19T10:26:23;27.92;;;19.33;;
58898;SDS011;44680;48.342;7.856;2022-08-19T10:28:50;29.58;;;19.98;;
58898;SDS011;44680;48.342;7.856;2022-08-19T10:31:19;28.60;;;19.20;;
58898;SDS011;44680;48.342;7.856;2022-08-19T10:33:49;25.90;;;17.08;;
58898;SDS011;44680;48.342;7.856;2022-08-19T10:36:19;30.25;;;18.80;;
58898;SDS011;44680;48.342;7.856;2022-08-19T10:38:48;29.92;;;19.00;;
58898;SDS011;44680;48.342;7.856;2022-08-19T10:41:18;31.40;;;19.05;;
58898;SDS011;44680;48.342;7.856;2022-08-19T10:43:47;25.48;;;17.55;;
58898;SDS011;44680;48.342;7.856;2022-08-19T10:46:14;27.33;;;17.80;;
58898;SDS011;44680;48.342;7.856;2022-08-19T10:48:40;28.73;;;18.20;;
58898;SDS011;44680;48.342;7.856;2022-08-19T10:51:06;29.50;;;17.95;;
58898;SDS011;44680;48.342;7.856;2022-08-19T10:53:50;28.67;;;16.03;;
58898;SDS011;44680;48.342;7.856;2022-08-19T10:56:16;27.30;;;18.50;;
58898;SDS011;44680;48.342;7.856;2022-08-19T10:59:00;23.65;;;17.17;;
58898;SDS011;44680;48.342;7.856;2022-08-19T11:01:27;26.80;;;16.92;;
58898;SDS011;44680;48.342;7.856;2022-08-19T11:03:54;31.20;;;18.42;;
58898;SDS011;44680;48.342;7.856;2022-08-19T11:06:21;24.33;;;16.42;;
58898;SDS011;44680;48.342;7.856;2022-08-19T11:08:46;24.90;;;16.73;;
58898;SDS011;44680;48.342;7.856;2022-08-19T11:11:12;26.38;;;17.77;;
58898;SDS011;44680;48.342;7.856;2022-08-19T11:13:38;28.55;;;17.92;;
58898;SDS011;44680;48.342;7.856;2022-08-19T11:16:15;25.88;;;17.00;;
58898;SDS011;44680;48.342;7.856;2022-08-19T11:18:47;27.13;;;17.08;;
58898;SDS011;44680;48.342;7.856;2022-08-19T11:21:21;25.55;;;16.70;;
58898;SDS011;44680;48.342;7.856;2022-08-19T11:23:49;24.58;;;17.40;;
58898;SDS011;44680;48.342;7.856;2022-08-19T11:26:16;25.45;;;16.40;;
58898;SDS011;44680;48.342;7.856;2022-08-19T11:28:42;25.75;;;17.33;;
58898;SDS011;44680;48.342;7.856;2022-08-19T11:31:11;27.55;;;18.55;;
58898;SDS011;44680;48.342;7.856;2022-08-19T11:33:38;25.55;;;17.48;;
58898;SDS011;44680;48.342;7.856;2022-08-19T11:36:04;27.15;;;18.02;;
58898;SDS011;44680;48.342;7.856;2022-08-19T11:38:29;25.17;;;17.00;;
58898;SDS011;44680;48.342;7.856;2022-08-19T11:40:59;27.08;;;17.70;;
58898;SDS011;44680;48.342;7.856;2022-08-19T11:43:25;25.13;;;16.30;;
58898;SDS011;44680;48.342;7.856;2022-08-19T11:45:52;24.88;;;16.52;;
58898;SDS011;44680;48.342;7.856;2022-08-19T11:48:20;24.75;;;16.73;;
58898;SDS011;44680;48.342;7.856;2022-08-19T11:50:48;23.10;;;15.27;;
58898;SDS011;44680;48.342;7.856;2022-08-19T11:53:14;25.00;;;16.77;;
58898;SDS011;44680;48.342;7.856;2022-08-19T11:55:40;26.45;;;15.93;;
58898;SDS011;44680;48.342;7.856;2022-08-19T11:58:05;22.45;;;15.13;;
58898;SDS011;44680;48.342;7.856;2022-08-19T12:00:32;27.60;;;17.88;;
58898;SDS011;44680;48.342;7.856;2022-08-19T12:03:00;27.52;;;17.38;;
58898;SDS011;44680;48.342;7.856;2022-08-19T12:05:25;29.33;;;16.88;;
58898;SDS011;44680;48.342;7.856;2022-08-19T12:07:51;26.73;;;17.27;;
58898;SDS011;44680;48.342;7.856;2022-08-19T12:10:16;29.20;;;17.95;;
58898;SDS011;44680;48.342;7.856;2022-08-19T12:12:42;27.05;;;19.45;;
58898;SDS011;44680;48.342;7.856;2022-08-19T12:15:08;30.00;;;18.98;;
58898;SDS011;44680;48.342;7.856;2022-08-19T12:17:34;28.17;;;18.73;;
58898;SDS011;44680;48.342;7.856;2022-08-19T12:19:59;24.92;;;17.45;;
58898;SDS011;44680;48.342;7.856;2022-08-19T12:22:25;22.75;;;15.13;;
58898;SDS011;44680;48.342;7.856;2022-08-19T12:24:50;27.90;;;18.45;;
58898;SDS011;44680;48.342;7.856;2022-08-19T12:27:18;25.30;;;16.75;;
58898;SDS011;44680;48.342;7.856;2022-08-19T12:29:43;23.98;;;16.52;;
58898;SDS011;44680;48.342;7.856;2022-08-19T12:32:09;24.77;;;16.42;;
58898;SDS011;44680;48.342;7.856;2022-08-19T12:34:35;25.02;;;16.83;;
58898;SDS011;44680;48.342;7.856;2022-08-19T12:37:02;27.48;;;18.63;;
58898;SDS011;44680;48.342;7.856;2022-08-19T12:39:28;24.90;;;16.23;;
58898;SDS011;44680;48.342;7.856;2022-08-19T12:41:55;26.27;;;17.65;;
58898;SDS011;44680;48.342;7.856;2022-08-19T12:44:21;24.50;;;15.95;;
58898;SDS011;44680;48.342;7.856;2022-08-19T12:46:47;22.33;;;15.25;;
58898;SDS011;44680;48.342;7.856;2022-08-19T12:49:13;25.25;;;17.23;;
58898;SDS011;44680;48.342;7.856;2022-08-19T12:51:40;21.10;;;15.05;;
58898;SDS011;44680;48.342;7.856;2022-08-19T12:54:06;22.02;;;15.02;;
58898;SDS011;44680;48.342;7.856;2022-08-19T12:56:31;23.80;;;16.02;;
58898;SDS011;44680;48.342;7.856;2022-08-19T12:59:00;21.67;;;14.55;;
58898;SDS011;44680;48.342;7.856;2022-08-19T13:01:26;18.75;;;13.23;;
58898;SDS011;44680;48.342;7.856;2022-08-19T13:03:53;21.17;;;14.85;;
58898;SDS011;44680;48.342;7.856;2022-08-19T13:06:18;21.98;;;15.23;;
58898;SDS011;44680;48.342;7.856;2022-08-19T13:08:43;20.25;;;14.20;;
58898;SDS011;44680;48.342;7.856;2022-08-19T13:11:10;17.60;;;13.02;;
58898;SDS011;44680;48.342;7.856;2022-08-19T13:13:39;22.95;;;14.93;;
58898;SDS011;44680;48.342;7.856;2022-08-19T13:16:06;21.58;;;13.35;;
58898;SDS011;44680;48.342;7.856;2022-08-19T13:18:32;19.15;;;13.90;;
58898;SDS011;44680;48.342;7.856;2022-08-19T13:21:02;19.98;;;13.30;;
58898;SDS011;44680;48.342;7.856;2022-08-19T13:25:59;21.77;;;14.02;;
58898;SDS011;44680;48.342;7.856;2022-08-19T13:28:25;21.88;;;14.27;;
58898;SDS011;44680;48.342;7.856;2022-08-19T13:30:51;20.65;;;14.10;;
58898;SDS011;44680;48.342;7.856;2022-08-19T13:33:35;21.58;;;15.13;;
58898;SDS011;44680;48.342;7.856;2022-08-19T13:36:00;20.38;;;14.18;;
58898;SDS011;44680;48.342;7.856;2022-08-19T13:38:26;20.20;;;12.93;;
58898;SDS011;44680;48.342;7.856;2022-08-19T13:40:52;17.50;;;12.82;;
58898;SDS011;44680;48.342;7.856;2022-08-19T13:43:19;19.27;;;13.00;;
58898;SDS011;44680;48.342;7.856;2022-08-19T13:45:47;17.80;;;12.68;;
58898;SDS011;44680;48.342;7.856;2022-08-19T13:48:13;16.75;;;11.20;;
58898;SDS011;44680;48.342;7.856;2022-08-19T13:50:41;15.68;;;10.75;;
58898;SDS011;44680;48.342;7.856;2022-08-19T13:53:08;10.82;;;9.73;;
58898;SDS011;44680;48.342;7.856;2022-08-19T13:55:34;14.02;;;9.82;;
58898;SDS011;44680;48.342;7.856;2022-08-19T13:58:00;13.60;;;10.20;;
58898;SDS011;44680;48.342;7.856;2022-08-19T14:00:27;14.23;;;9.93;;
58898;SDS011;44680;48.342;7.856;2022-08-19T14:02:56;14.05;;;9.23;;
58898;SDS011;44680;48.342;7.856;2022-08-19T14:05:22;10.00;;;8.93;;
58898;SDS011;44680;48.342;7.856;2022-08-19T14:07:48;11.63;;;9.45;;
58898;SDS011;44680;48.342;7.856;2022-08-19T14:10:14;14.27;;;10.10;;
58898;SDS011;44680;48.342;7.856;2022-08-19T14:12:40;15.55;;;10.48;;
58898;SDS011;44680;48.342;7.856;2022-08-19T14:15:06;13.52;;;10.27;;
58898;SDS011;44680;48.342;7.856;2022-08-19T14:17:33;15.02;;;10.00;;
58898;SDS011;44680;48.342;7.856;2022-08-19T14:20:00;10.68;;;9.10;;
58898;SDS011;44680;48.342;7.856;2022-08-19T14:22:28;12.65;;;9.20;;
58898;SDS011;44680;48.342;7.856;2022-08-19T14:24:56;14.32;;;9.18;;
58898;SDS011;44680;48.342;7.856;2022-08-19T14:27:21;15.45;;;10.05;;
58898;SDS011;44680;48.342;7.856;2022-08-19T14:29:48;12.38;;;9.45;;
58898;SDS011;44680;48.342;7.856;2022-08-19T14:32:14;12.73;;;9.95;;
58898;SDS011;44680;48.342;7.856;2022-08-19T14:34:40;13.60;;;9.85;;